createdAt,value
2022-12-17T00:02:39.552Z,102304.28
2022-12-17T00:05:27.514Z,102300.00
2022-12-17T00:08:18.581Z,102295.65
2022-12-17T00:11:05.749Z,102295.62
2022-12-17T00:13:52.984Z,102298.63
2022-12-17T00:16:42.763Z,102305.06
2022-12-17T00:19:30.212Z,102300.33
2022-12-17T00:22:18.111Z,102303.34
2022-12-17T00:25:05.733Z,102297.34
2022-12-17T00:27:52.657Z,102296.44
2022-12-17T00:30:40.981Z,102298.70
2022-12-17T00:33:27.992Z,102302.52
2022-12-17T00:36:15.095Z,102303.36
2022-12-17T00:39:02.913Z,102304.63
2022-12-17T00:41:50.170Z,102309.77
2022-12-17T00:44:37.646Z,102308.45
2022-12-17T00:47:24.955Z,102316.14
2022-12-17T00:50:12.769Z,102321.27
2022-12-17T00:53:01.617Z,102323.39
2022-12-17T00:55:32.651Z,102330.25
2022-12-17T00:58:19.895Z,102323.41
2022-12-17T01:01:07.622Z,102325.95
2022-12-17T01:03:55.076Z,102331.52
2022-12-17T01:06:43.904Z,102324.26
2022-12-17T01:09:31.924Z,102323.40
2022-12-17T01:12:19.172Z,102321.69
2022-12-17T01:15:06.356Z,102327.23
2022-12-17T01:17:53.602Z,102333.22
2022-12-17T01:20:42.881Z,102320.53
2022-12-17T01:23:30.307Z,102321.94
2022-12-17T01:26:17.491Z,102331.09
2022-12-17T01:29:06.516Z,102332.91
2022-12-17T01:31:40.766Z,102338.95
2022-12-17T01:34:28.187Z,102338.09
2022-12-17T01:37:15.438Z,102341.52
2022-12-17T01:40:02.575Z,102346.20
2022-12-17T01:42:58.932Z,102345.32
2022-12-17T01:45:49.337Z,102347.45
2022-12-17T01:48:36.908Z,102346.09
2022-12-17T01:51:25.042Z,102346.50
2022-12-17T01:54:13.313Z,102359.77
2022-12-17T01:57:01.271Z,102362.31
2022-12-17T02:00:11.075Z,102359.72
2022-12-17T02:03:01.467Z,102359.70
2022-12-17T02:06:02.442Z,102365.25
2022-12-17T02:09:01.738Z,102361.77
2022-12-17T02:12:03.813Z,102369.03
2022-12-17T02:14:54.286Z,102369.03
2022-12-17T02:17:46.131Z,102361.75
2022-12-17T02:20:45.504Z,102357.00
2022-12-17T02:23:42.457Z,102354.02
2022-12-17T02:27:00.322Z,102359.55
2022-12-17T02:30:07.423Z,102359.14
2022-12-17T02:32:56.852Z,102369.48
2022-12-17T02:35:47.320Z,102375.04
2022-12-17T02:38:48.912Z,102375.05
2022-12-17T02:41:48.858Z,102373.33
2022-12-17T02:44:37.785Z,102380.62
2022-12-17T02:47:28.438Z,102384.11
2022-12-17T02:50:16.056Z,102378.50
2022-12-17T02:53:07.573Z,102377.19
2022-12-17T02:55:56.005Z,102387.95
2022-12-17T02:58:43.100Z,102381.95
2022-12-17T03:01:30.246Z,102384.08
2022-12-17T03:04:17.769Z,102393.55
2022-12-17T03:07:05.590Z,102394.02
2022-12-17T03:09:54.949Z,102402.17
2022-12-17T03:12:43.554Z,102397.41
2022-12-17T03:15:30.636Z,102397.44
2022-12-17T03:18:18.068Z,102401.30
2022-12-17T03:21:04.917Z,102405.16
2022-12-17T03:23:51.757Z,102404.68
2022-12-17T03:26:38.914Z,102403.00
2022-12-17T03:29:26.304Z,102406.88
2022-12-17T03:32:13.307Z,102404.72
2022-12-17T03:35:00.579Z,102408.63
2022-12-17T03:37:47.906Z,102406.91
2022-12-17T03:40:35.219Z,102412.48
2022-12-17T03:43:30.086Z,102408.16
2022-12-17T03:46:17.502Z,102401.73
2022-12-17T03:49:04.922Z,102406.45
2022-12-17T03:51:51.940Z,102407.71
2022-12-17T03:54:28.802Z,102409.00
2022-12-17T03:57:16.609Z,102413.75
2022-12-17T04:00:03.767Z,102421.91
2022-12-17T04:02:53.281Z,102418.91
2022-12-17T04:05:40.415Z,102427.47
2022-12-17T04:08:28.270Z,102420.59
2022-12-17T04:11:15.406Z,102422.69
2022-12-17T04:14:02.521Z,102417.52
2022-12-17T04:16:49.642Z,102420.53
2022-12-17T04:19:37.045Z,102423.10
2022-12-17T04:22:25.172Z,102425.66
2022-12-17T04:25:12.609Z,102425.20
2022-12-17T04:27:59.583Z,102426.06
2022-12-17T04:30:46.738Z,102429.91
2022-12-17T04:33:34.748Z,102429.08
2022-12-17T04:36:22.305Z,102432.98
2022-12-17T04:39:09.685Z,102445.48
2022-12-17T04:41:57.133Z,102444.60
2022-12-17T04:44:44.360Z,102445.52
2022-12-17T04:47:31.629Z,102443.84
2022-12-17T04:50:18.802Z,102447.25
2022-12-17T04:53:05.744Z,102442.12
2022-12-17T04:55:52.805Z,102451.14
2022-12-17T04:58:40.222Z,102455.84
2022-12-17T05:01:27.560Z,102462.74
2022-12-17T05:04:15.203Z,102453.28
2022-12-17T05:07:02.068Z,102457.58
2022-12-17T05:09:49.557Z,102455.39
2022-12-17T05:12:36.568Z,102454.55
2022-12-17T05:15:24.369Z,102457.55
2022-12-17T05:18:11.487Z,102454.97
2022-12-17T05:20:58.774Z,102457.11
2022-12-17T05:23:45.855Z,102456.23
2022-12-17T05:26:41.179Z,102465.27
2022-12-17T05:29:28.966Z,102465.23
2022-12-17T05:32:16.592Z,102471.69
2022-12-17T05:35:04.288Z,102467.44
2022-12-17T05:37:51.642Z,102463.97
2022-12-17T05:40:39.047Z,102466.15
2022-12-17T05:43:29.642Z,102461.40
2022-12-17T05:46:18.931Z,102462.69
2022-12-17T05:49:06.342Z,102462.34
2022-12-17T05:51:53.424Z,102458.05
2022-12-17T05:54:40.820Z,102455.93
2022-12-17T05:57:28.285Z,102459.39
2022-12-17T06:00:15.856Z,102456.84
2022-12-17T06:03:03.607Z,102460.30
2022-12-17T06:05:50.718Z,102459.87
2022-12-17T06:08:37.931Z,102463.79
2022-12-17T06:11:24.886Z,102456.94
2022-12-17T06:14:12.009Z,102466.82
2022-12-17T06:16:59.396Z,102473.29
2022-12-17T06:19:46.793Z,102486.61
2022-12-17T06:22:34.431Z,102484.91
2022-12-17T06:25:21.478Z,102480.20
2022-12-17T06:28:08.172Z,102480.20
2022-12-17T06:30:55.253Z,102484.03
2022-12-17T06:33:42.766Z,102489.63
2022-12-17T06:36:30.627Z,102499.47
2022-12-17T06:39:17.581Z,102496.47
2022-12-17T06:42:05.247Z,102495.56
2022-12-17T06:44:53.168Z,102499.40
2022-12-17T06:47:41.052Z,102500.69
2022-12-17T06:50:28.307Z,102503.27
2022-12-17T06:53:20.717Z,102513.95
2022-12-17T06:56:08.050Z,102518.27
2022-12-17T06:58:56.087Z,102513.96
2022-12-17T07:01:43.269Z,102509.25
2022-12-17T07:04:30.835Z,102507.53
2022-12-17T07:07:18.409Z,102514.84
2022-12-17T07:10:10.707Z,102511.32
2022-12-17T07:12:55.583Z,102516.00
2022-12-17T07:15:42.673Z,102516.00
2022-12-17T07:18:29.624Z,102516.47
2022-12-17T07:21:17.147Z,102527.59
2022-12-17T07:24:04.172Z,102531.02
2022-12-17T07:26:51.816Z,102535.27
2022-12-17T07:29:39.685Z,102543.89
2022-12-17T07:32:27.115Z,102544.29
2022-12-17T07:35:14.744Z,102556.33
2022-12-17T07:38:02.208Z,102567.89
2022-12-17T07:40:50.304Z,102577.75
2022-12-17T07:43:38.383Z,102585.50
2022-12-17T07:46:26.382Z,102579.94
2022-12-17T07:49:13.932Z,102591.12
2022-12-17T07:52:01.592Z,102594.10
2022-12-17T07:54:49.304Z,102594.13
2022-12-17T07:57:36.441Z,102590.75
2022-12-17T08:00:24.775Z,102589.84
2022-12-17T08:03:18.765Z,102593.22
2022-12-17T08:06:06.217Z,102592.83
2022-12-17T08:08:53.477Z,102599.67
2022-12-17T08:11:41.084Z,102602.30
2022-12-17T08:14:28.604Z,102603.66
2022-12-17T08:17:15.776Z,102600.23
2022-12-17T08:20:02.935Z,102603.66
2022-12-17T08:22:50.617Z,102607.97
2022-12-17T08:25:37.555Z,102609.31
2022-12-17T08:28:49.558Z,102617.05
2022-12-17T08:31:14.326Z,102616.67
2022-12-17T08:34:07.604Z,102614.97
2022-12-17T08:36:50.613Z,102618.85
2022-12-17T08:39:37.783Z,102618.86
2022-12-17T08:42:25.407Z,102618.86
2022-12-17T08:45:12.723Z,102611.11
2022-12-17T08:48:04.108Z,102607.25
2022-12-17T08:50:49.269Z,102607.25
2022-12-17T08:53:37.124Z,102610.69
2022-12-17T08:56:25.601Z,102621.00
2022-12-17T08:59:13.637Z,102626.58
2022-12-17T09:02:00.943Z,102626.17
2022-12-17T09:04:48.985Z,102635.61
2022-12-17T09:07:36.315Z,102631.34
2022-12-17T09:10:24.122Z,102632.23
2022-12-17T09:13:11.040Z,102631.38
2022-12-17T09:15:58.565Z,102633.54
2022-12-17T09:18:45.763Z,102642.16
2022-12-17T09:21:32.747Z,102639.13
2022-12-17T09:24:20.010Z,102650.31
2022-12-17T09:27:06.940Z,102653.77
2022-12-17T09:29:54.028Z,102651.61
2022-12-17T09:32:41.779Z,102652.06
2022-12-17T09:35:29.494Z,102653.77
2022-12-17T09:38:17.394Z,102658.94
2022-12-17T09:41:10.358Z,102653.78
2022-12-17T09:44:01.281Z,102649.50
2022-12-17T09:47:13.323Z,102646.91
2022-12-17T09:50:00.673Z,102649.50
2022-12-17T09:52:58.822Z,102655.52
2022-12-17T09:55:51.608Z,102664.10
2022-12-17T09:58:41.422Z,102667.13
2022-12-17T10:01:37.465Z,102664.55
2022-12-17T10:04:27.896Z,102664.13
2022-12-17T10:07:15.136Z,102666.27
2022-12-17T10:10:03.593Z,102667.13
2022-12-17T10:12:50.913Z,102679.56
2022-12-17T10:15:37.971Z,102683.22
2022-12-17T10:18:28.411Z,102674.56
2022-12-17T10:21:20.954Z,102674.89
2022-12-17T10:24:15.444Z,102670.97
2022-12-17T10:27:00.872Z,102663.86
2022-12-17T10:29:50.448Z,102662.92
2022-12-17T10:32:41.071Z,102668.30
2022-12-17T10:35:48.013Z,102664.09
2022-12-17T10:38:45.798Z,102664.55
2022-12-17T10:41:44.734Z,102658.52
2022-12-17T10:44:55.077Z,102655.95
2022-12-17T10:47:44.508Z,102658.52
2022-12-17T10:50:35.190Z,102658.11
2022-12-17T10:53:23.657Z,102668.42
2022-12-17T10:56:15.842Z,102670.13
2022-12-17T10:59:08.412Z,102675.71
2022-12-17T11:01:58.681Z,102675.71
2022-12-17T11:04:51.257Z,102670.58
2022-12-17T11:07:43.998Z,102677.86
2022-12-17T11:10:34.550Z,102681.66
2022-12-17T11:13:24.357Z,102693.72
2022-12-17T11:16:17.011Z,102698.89
2022-12-17T11:19:16.485Z,102696.34
2022-12-17T11:22:07.858Z,102690.75
2022-12-17T11:25:00.850Z,102690.72
2022-12-17T11:27:57.735Z,102678.26
2022-12-17T11:30:46.378Z,102675.18
2022-12-17T11:33:42.944Z,102685.92
2022-12-17T11:36:47.761Z,102685.05
2022-12-17T11:39:55.145Z,102688.44
2022-12-17T11:42:45.685Z,102695.39
2022-12-17T11:45:54.689Z,102697.46
2022-12-17T11:48:45.204Z,102695.33
2022-12-17T11:51:37.336Z,102690.69
2022-12-17T11:54:30.430Z,102682.09
2022-12-17T11:57:29.461Z,102685.53
2022-12-17T12:00:22.531Z,102679.48
2022-12-17T12:03:25.234Z,102682.95
2022-12-17T12:06:20.082Z,102677.31
2022-12-17T12:09:27.811Z,102676.92
2022-12-17T12:12:27.086Z,102666.05
2022-12-17T12:15:25.745Z,102671.69
2022-12-17T12:18:29.951Z,102664.38
2022-12-17T12:21:26.284Z,102660.39
2022-12-17T12:24:38.400Z,102663.84
2022-12-17T12:27:31.424Z,102669.00
2022-12-17T12:30:41.880Z,102666.38
2022-12-17T12:33:56.643Z,102668.89
2022-12-17T12:36:44.834Z,102664.08
2022-12-17T12:39:35.288Z,102673.82
2022-12-17T12:42:29.030Z,102669.08
2022-12-17T12:45:24.993Z,102668.70
2022-12-17T12:48:21.780Z,102667.88
2022-12-17T12:51:20.880Z,102677.29
2022-12-17T12:54:19.105Z,102673.74
2022-12-17T12:57:06.124Z,102669.41
2022-12-17T12:59:56.538Z,102672.85
2022-12-17T13:02:47.199Z,102666.94
2022-12-17T13:05:33.907Z,102673.84
2022-12-17T13:08:06.112Z,102671.72
2022-12-17T13:10:36.715Z,102674.69
2022-12-17T13:13:30.849Z,102671.62
2022-12-17T13:16:03.400Z,102669.45
2022-12-17T13:18:41.037Z,102670.80
2022-12-17T13:21:19.597Z,102672.91
2022-12-17T13:23:48.958Z,102665.70
2022-12-17T13:26:21.153Z,102666.96
2022-12-17T13:29:02.710Z,102668.22
2022-12-17T13:31:35.406Z,102659.70
2022-12-17T13:34:10.701Z,102654.53
2022-12-17T13:36:46.146Z,102652.84
2022-12-17T13:39:30.821Z,102652.83
2022-12-17T13:42:00.402Z,102648.98
2022-12-17T13:44:39.270Z,102635.59
2022-12-17T13:47:20.897Z,102642.52
2022-12-17T13:50:31.827Z,102642.08
2022-12-17T13:52:28.962Z,102643.34
2022-12-17T13:55:13.636Z,102635.14
2022-12-17T13:57:47.317Z,102642.91
2022-12-17T14:00:29.053Z,102643.36
2022-12-17T14:02:58.322Z,102650.72
2022-12-17T14:05:38.048Z,102657.20
2022-12-17T14:08:07.532Z,102657.62
2022-12-17T14:10:37.017Z,102661.90
2022-12-17T14:13:11.984Z,102660.63
2022-12-17T14:15:46.775Z,102657.14
2022-12-17T14:18:18.542Z,102660.16
2022-12-17T14:20:48.173Z,102658.84
2022-12-17T14:23:22.786Z,102659.73
2022-12-17T14:25:52.498Z,102670.47
2022-12-17T14:28:37.159Z,102672.65
2022-12-17T14:31:27.066Z,102676.55
2022-12-17T14:33:40.967Z,102677.87
2022-12-17T14:36:18.915Z,102682.61
2022-12-17T14:38:59.991Z,102687.30
2022-12-17T14:41:47.898Z,102688.16
2022-12-17T14:44:27.416Z,102692.05
2022-12-17T14:47:08.955Z,102689.05
2022-12-17T14:49:40.554Z,102693.78
2022-12-17T14:52:15.858Z,102694.65
2022-12-17T14:54:48.088Z,102689.90
2022-12-17T14:57:24.418Z,102694.64
2022-12-17T14:59:53.989Z,102691.63
2022-12-17T15:02:26.921Z,102692.48
2022-12-17T15:05:01.970Z,102698.52
2022-12-17T15:07:32.936Z,102698.95
2022-12-17T15:10:02.222Z,102693.38
2022-12-17T15:12:32.133Z,102711.44
2022-12-17T15:15:01.352Z,102716.61
2022-12-17T15:17:30.826Z,102712.73
2022-12-17T15:20:00.033Z,102706.70
2022-12-17T15:22:29.451Z,102705.41
2022-12-17T15:24:58.640Z,102710.99
2022-12-17T15:27:28.126Z,102708.41
2022-12-17T15:29:57.465Z,102715.28
2022-12-17T15:32:26.921Z,102718.73
2022-12-17T15:34:56.373Z,102716.14
2022-12-17T15:37:26.076Z,102717.02
2022-12-17T15:39:56.254Z,102721.30
2022-12-17T15:42:43.767Z,102723.88
2022-12-17T15:45:13.341Z,102724.30
2022-12-17T15:47:43.167Z,102726.88
2022-12-17T15:50:12.641Z,102726.84
2022-12-17T15:52:42.351Z,102729.42
2022-12-17T15:55:14.235Z,102737.14
2022-12-17T15:57:45.026Z,102744.00
2022-12-17T16:00:15.154Z,102740.12
2022-12-17T16:02:45.171Z,102747.45
2022-12-17T16:05:14.943Z,102741.44
2022-12-17T16:07:44.534Z,102752.16
2022-12-17T16:10:15.127Z,102750.48
2022-12-17T16:12:44.586Z,102747.45
2022-12-17T16:15:14.620Z,102736.70
2022-12-17T16:17:43.996Z,102740.16
2022-12-17T16:20:13.296Z,102744.89
2022-12-17T16:22:42.583Z,102733.67
2022-12-17T16:25:11.996Z,102725.47
2022-12-17T16:27:41.679Z,102729.39
2022-12-17T16:30:11.860Z,102735.37
2022-12-17T16:32:41.446Z,102733.65
2022-12-17T16:35:10.841Z,102749.54
2022-12-17T16:37:40.275Z,102755.14
2022-12-17T16:40:11.104Z,102754.73
2022-12-17T16:42:40.677Z,102755.20
2022-12-17T16:45:11.040Z,102757.28
2022-12-17T16:47:40.294Z,102755.17
2022-12-17T16:50:09.995Z,102762.84
2022-12-17T16:52:39.300Z,102769.73
2022-12-17T16:55:09.129Z,102758.53
2022-12-17T16:57:38.363Z,102758.03
2022-12-17T17:00:09.047Z,102761.47
2022-12-17T17:02:38.633Z,102749.01
2022-12-17T17:05:08.139Z,102755.00
2022-12-17T17:07:37.422Z,102754.13
2022-12-17T17:10:07.384Z,102760.16
2022-12-17T17:12:36.797Z,102763.61
2022-12-17T17:15:07.431Z,102770.08
2022-12-17T17:17:54.409Z,102765.83
2022-12-17T17:20:08.435Z,102766.24
2022-12-17T17:22:37.637Z,102765.38
2022-12-17T17:25:07.152Z,102768.77
2022-12-17T17:27:36.724Z,102774.30
2022-12-17T17:30:06.849Z,102775.19
2022-12-17T17:32:36.184Z,102770.88
2022-12-17T17:35:06.174Z,102768.73
2022-12-17T17:37:35.831Z,102776.06
2022-12-17T17:40:05.972Z,102773.84
2022-12-17T17:42:35.197Z,102774.72
2022-12-17T17:45:04.645Z,102767.44
2022-12-17T17:47:34.070Z,102773.88
2022-12-17T17:50:03.275Z,102775.55
2022-12-17T17:52:32.686Z,102776.69
2022-12-17T17:55:02.387Z,102773.67
2022-12-17T17:57:31.629Z,102776.22
2022-12-17T18:00:01.085Z,102786.90
2022-12-17T18:02:30.553Z,102784.30
2022-12-17T18:05:00.233Z,102778.33
2022-12-17T18:07:29.763Z,102777.45
2022-12-17T18:09:59.977Z,102774.92
2022-12-17T18:12:48.848Z,102772.75
2022-12-17T18:15:18.858Z,102768.47
2022-12-17T18:17:52.707Z,102769.77
2022-12-17T18:20:22.020Z,102759.95
2022-12-17T18:22:51.243Z,102761.23
2022-12-17T18:25:20.514Z,102762.93
2022-12-17T18:27:51.656Z,102762.10
2022-12-17T18:30:21.404Z,102770.33
2022-12-17T18:32:50.721Z,102774.06
2022-12-17T18:35:19.940Z,102775.69
2022-12-17T18:37:49.215Z,102775.16
2022-12-17T18:40:18.603Z,102778.58
2022-12-17T18:43:05.505Z,102780.70
2022-12-17T18:45:36.982Z,102781.49
2022-12-17T18:48:06.685Z,102779.44
2022-12-17T18:50:36.300Z,102776.83
2022-12-17T18:53:07.189Z,102776.89
2022-12-17T18:55:39.508Z,102770.02
2022-12-17T18:58:09.619Z,102769.98
2022-12-17T19:00:39.108Z,102768.23
2022-12-17T19:03:10.176Z,102778.98
2022-12-17T19:05:45.219Z,102788.44
2022-12-17T19:08:11.643Z,102788.09
2022-12-17T19:10:40.890Z,102793.19
2022-12-17T19:13:10.458Z,102797.81
2022-12-17T19:15:39.810Z,102802.63
2022-12-17T19:18:09.119Z,102804.81
2022-12-17T19:20:38.348Z,102812.91
2022-12-17T19:23:07.653Z,102812.94
2022-12-17T19:25:37.043Z,102820.09
2022-12-17T19:28:06.349Z,102823.52
2022-12-17T19:30:35.623Z,102826.11
2022-12-17T19:33:04.969Z,102832.54
2022-12-17T19:35:36.438Z,102833.83
2022-12-17T19:38:05.832Z,102836.89
2022-12-17T19:40:36.204Z,102832.58
2022-12-17T19:43:05.492Z,102830.94
2022-12-17T19:45:35.233Z,102820.98
2022-12-17T19:48:04.992Z,102824.38
2022-12-17T19:50:34.290Z,102825.69
2022-12-17T19:53:03.896Z,102821.39
2022-12-17T19:55:33.249Z,102829.87
2022-12-17T19:58:02.837Z,102830.80
2022-12-17T20:00:32.120Z,102822.16
2022-12-17T20:03:02.236Z,102837.26
2022-12-17T20:05:31.688Z,102832.48
2022-12-17T20:08:01.288Z,102831.59
2022-12-17T20:10:31.442Z,102839.29
2022-12-17T20:13:00.844Z,102836.28
2022-12-17T20:15:31.199Z,102841.94
2022-12-17T20:18:00.519Z,102835.03
2022-12-17T20:20:30.071Z,102833.34
2022-12-17T20:22:59.392Z,102830.34
2022-12-17T20:25:28.718Z,102829.97
2022-12-17T20:27:58.110Z,102831.70
2022-12-17T20:30:27.429Z,102829.97
2022-12-17T20:32:56.919Z,102838.52
2022-12-17T20:35:26.362Z,102826.56
2022-12-17T20:37:55.693Z,102836.89
2022-12-17T20:40:25.297Z,102829.20
2022-12-17T20:42:54.726Z,102835.55
2022-12-17T20:45:24.256Z,102829.11
2022-12-17T20:47:53.603Z,102819.20
2022-12-17T20:50:23.249Z,102814.03
2022-12-17T20:52:53.028Z,102804.66
2022-12-17T20:55:25.279Z,102804.64
2022-12-17T20:57:53.793Z,102800.40
2022-12-17T21:00:23.350Z,102796.11
2022-12-17T21:02:55.711Z,102805.98
2022-12-17T21:05:26.267Z,102811.95
2022-12-17T21:07:55.583Z,102806.80
2022-12-17T21:10:24.934Z,102809.48
2022-12-17T21:13:12.000Z,102815.08
2022-12-17T21:15:41.291Z,102815.02
2022-12-17T21:18:10.590Z,102820.21
2022-12-17T21:20:39.871Z,102821.52
2022-12-17T21:23:09.904Z,102820.69
2022-12-17T21:25:39.413Z,102838.68
2022-12-17T21:28:09.013Z,102855.83
2022-12-17T21:30:40.142Z,102855.42
2022-12-17T21:33:09.533Z,102856.33
2022-12-17T21:35:39.071Z,102851.53
2022-12-17T21:38:08.394Z,102851.11
2022-12-17T21:40:39.596Z,102856.70
2022-12-17T21:43:09.184Z,102857.59
2022-12-17T21:45:41.832Z,102862.33
2022-12-17T21:48:14.964Z,102875.63
2022-12-17T21:50:43.592Z,102882.92
2022-12-17T21:53:13.982Z,102891.42
2022-12-17T21:55:43.334Z,102891.02
2022-12-17T21:58:13.034Z,102887.56
2022-12-17T22:00:43.630Z,102887.52
2022-12-17T22:03:13.096Z,102894.79
2022-12-17T22:05:42.371Z,102896.08
2022-12-17T22:08:12.768Z,102902.00
2022-12-17T22:10:44.457Z,102908.82
2022-12-17T22:13:32.920Z,102908.30
2022-12-17T22:16:02.230Z,102900.57
2022-12-17T22:18:31.587Z,102904.44
2022-12-17T22:21:01.688Z,102900.48
2022-12-17T22:23:31.241Z,102899.62
2022-12-17T22:26:00.842Z,102903.92
2022-12-17T22:28:30.155Z,102898.33
2022-12-17T22:31:20.474Z,102900.47
2022-12-17T22:34:20.638Z,102896.19
2022-12-17T22:39:01.535Z,102892.70
2022-12-17T22:42:24.052Z,102892.63
2022-12-17T22:44:45.959Z,102900.33
2022-12-17T22:44:48.658Z,102890.94
2022-12-17T22:46:45.352Z,102889.62
2022-12-17T22:49:15.394Z,102888.69
2022-12-17T22:51:45.095Z,102887.08
2022-12-17T22:54:15.678Z,102886.66
2022-12-17T22:57:27.904Z,102882.74
2022-12-17T22:59:17.532Z,102878.90
2022-12-17T23:01:47.264Z,102875.02
2022-12-17T23:04:17.701Z,102878.47
2022-12-17T23:06:47.524Z,102883.22
2022-12-17T23:09:19.668Z,102874.15
2022-12-17T23:11:49.167Z,102879.70
2022-12-17T23:14:20.254Z,102886.16
2022-12-17T23:16:49.502Z,102886.51
2022-12-17T23:19:18.946Z,102890.01
2022-12-17T23:21:48.191Z,102881.45
2022-12-17T23:24:17.511Z,102879.73
2022-12-17T23:26:46.779Z,102878.81
2022-12-17T23:29:19.545Z,102881.61
2022-12-17T23:31:47.717Z,102879.04
2022-12-17T23:34:17.472Z,102873.94
2022-12-17T23:36:46.696Z,102879.12
2022-12-17T23:39:16.153Z,102891.14
2022-12-17T23:41:45.444Z,102888.59
2022-12-17T23:44:14.863Z,102888.19
2022-12-17T23:46:44.161Z,102887.80
2022-12-17T23:49:16.733Z,102883.03
2022-12-17T23:51:45.985Z,102881.26
2022-12-17T23:54:15.436Z,102867.88
2022-12-17T23:56:45.536Z,102875.31
2022-12-17T23:59:15.174Z,102881.27
